Time;durP1;ratioP1;P1;durP2;ratioP2;P2;SDS_P1;SDS_P2;PMS_P1;PMS_P2;Temp;Humidity;BMP_temperature;BMP_pressure;BME280_temperature;BME280_humidity;BME280_pressure;Samples;Min_cycle;Max_cycle;Signal;HPM_P1;HPM_P2
2023/05/16 00:01:56;;;;;;;3.63;1.60;;;;;;;9.44;62.45;100962.03;5004879;28;20074;-56
2023/05/16 00:04:25;;;;;;;2.58;1.13;;;;;;;9.41;62.19;100969.72;5002892;28;20054;-56
2023/05/16 00:06:52;;;;;;;3.83;1.08;;;;;;;9.36;62.55;100966.19;5005175;28;20052;-52
2023/05/16 00:09:18;;;;;;;2.28;0.70;;;;;;;9.30;62.27;100972.13;5000252;28;20053;-56
2023/05/16 00:11:47;;;;;;;4.68;0.68;;;;;;;9.26;62.67;100968.59;5004532;28;20101;-56
2023/05/16 00:14:14;;;;;;;3.30;1.25;;;;;;;9.22;62.79;100969.41;4996308;28;20046;-51
2023/05/16 00:16:40;;;;;;;2.10;0.93;;;;;;;9.18;62.73;100967.59;5001595;28;20053;-59
2023/05/16 00:19:08;;;;;;;5.65;0.77;;;;;;;9.13;62.65;100966.66;5001760;28;20148;-54
2023/05/16 00:21:36;;;;;;;2.20;1.00;;;;;;;9.09;63.60;100967.44;5007532;28;20077;-55
2023/05/16 00:24:04;;;;;;;3.72;0.75;;;;;;;9.07;63.82;100969.13;5006451;28;20080;-53
2023/05/16 00:26:31;;;;;;;3.75;1.02;;;;;;;9.03;63.87;100967.31;5010774;28;20050;-54
2023/05/16 00:28:59;;;;;;;3.80;0.82;;;;;;;9.00;63.30;100971.63;5005177;28;20049;-56
2023/05/16 00:31:25;;;;;;;5.47;1.15;;;;;;;8.97;63.50;100963.78;5001619;28;20049;-55
2023/05/16 00:33:53;;;;;;;3.65;1.00;;;;;;;8.94;64.30;100962.84;5002050;28;20810;-54
2023/05/16 00:36:20;;;;;;;4.93;1.40;;;;;;;8.92;64.16;100965.41;5003526;28;20100;-56
2023/05/16 00:38:49;;;;;;;2.05;1.08;;;;;;;8.89;63.98;100965.38;5005900;28;20041;-55
2023/05/16 00:41:17;;;;;;;3.58;0.98;;;;;;;8.86;64.37;100957.56;5008024;28;20049;-55
2023/05/16 00:43:43;;;;;;;5.03;0.93;;;;;;;8.84;64.07;100964.38;5001325;28;20053;-56
2023/05/16 00:46:10;;;;;;;3.55;0.80;;;;;;;8.82;63.64;100968.66;5002162;28;20073;-54
2023/05/16 00:48:37;;;;;;;3.65;0.70;;;;;;;8.79;63.52;100966.03;5005868;28;20061;-56
2023/05/16 00:51:08;;;;;;;5.53;1.15;;;;;;;8.77;63.69;100962.53;5007913;28;20052;-54
2023/05/16 00:53:35;;;;;;;6.32;1.00;;;;;;;8.74;64.53;100959.06;5004119;28;20050;-55
2023/05/16 00:56:04;;;;;;;7.80;1.38;;;;;;;8.73;63.63;100965.06;5007786;28;20066;-54
2023/05/16 00:58:32;;;;;;;4.70;1.38;;;;;;;8.70;63.42;100959.84;5010215;28;20053;-54
2023/05/16 01:01:02;;;;;;;5.88;1.48;;;;;;;8.69;64.39;100954.63;5010437;28;20057;-56
2023/05/16 01:03:30;;;;;;;7.53;1.35;;;;;;;8.64;64.80;100954.53;5001800;28;20072;-56
2023/05/16 01:05:57;;;;;;;3.90;1.00;;;;;;;8.60;64.43;100958.78;5007050;28;20056;-55
2023/05/16 01:08:24;;;;;;;4.90;1.20;;;;;;;8.57;64.01;100957.84;5008968;28;20091;-54
2023/05/16 01:13:37;;;;;;;6.95;2.03;;;;;;;8.47;64.82;100960.22;5047585;28;20381;-53
2023/05/16 01:16:12;;;;;;;9.13;2.83;;;;;;;8.45;63.76;100964.47;4984294;28;20046;-54
2023/05/16 01:21:24;;;;;;;6.60;1.58;;;;;;;9.04;65.21;100961.31;5033471;27;20411;-54
2023/05/16 01:26:35;;;;;;;3.70;1.30;;;;;;;8.52;65.01;100960.31;5037563;28;20410;-53
2023/05/16 01:29:02;;;;;;;3.97;2.58;;;;;;;8.47;65.40;100957.63;5000904;28;20581;-54
2023/05/16 01:31:29;;;;;;;5.63;0.90;;;;;;;8.41;64.64;100957.50;5001638;28;20042;-55
2023/05/16 01:33:56;;;;;;;4.15;1.42;;;;;;;8.38;65.44;100960.03;5000235;28;20050;-55
2023/05/16 01:36:41;;;;;;;4.82;1.90;;;;;;;8.32;65.37;100962.47;4999219;28;20073;-55
2023/05/16 01:42:13;;;;;;;4.05;1.73;;;;;;;8.22;64.49;100957.13;5031829;28;20421;-55
2023/05/16 01:44:45;;;;;;;2.97;1.20;;;;;;;8.22;64.81;100957.13;5013734;28;20050;-56
2023/05/16 01:47:13;;;;;;;5.07;1.58;;;;;;;8.20;65.22;100968.22;5013434;28;20632;-53
2023/05/16 01:49:49;;;;;;;5.68;1.27;;;;;;;8.18;64.56;100965.59;5020033;28;20059;-56
2023/05/16 01:52:23;;;;;;;4.00;1.42;;;;;;;8.15;64.43;100964.69;5017194;28;20107;-55
2023/05/16 01:54:53;;;;;;;4.57;2.03;;;;;;;8.12;65.61;100962.91;5021380;28;20507;-56
2023/05/16 01:57:23;;;;;;;7.20;1.95;;;;;;;8.10;65.43;100956.84;5014629;28;20053;-57
2023/05/16 01:59:49;;;;;;;4.30;1.48;;;;;;;8.07;64.96;100947.31;5017959;28;20212;-56
2023/05/16 02:02:18;;;;;;;4.28;1.35;;;;;;;8.06;65.84;100955.03;5020253;28;20134;-56
2023/05/16 02:04:45;;;;;;;7.57;1.25;;;;;;;8.05;65.21;100953.28;5014292;28;20557;-56
2023/05/16 02:07:13;;;;;;;6.63;1.85;;;;;;;8.03;65.39;100954.94;5019224;28;20537;-57
2023/05/16 02:09:40;;;;;;;3.88;1.05;;;;;;;8.01;65.09;100954.94;5016287;28;20183;-53
2023/05/16 02:12:07;;;;;;;3.22;1.27;;;;;;;8.00;65.71;100952.31;5020426;28;20686;-56
2023/05/16 02:14:33;;;;;;;4.68;1.40;;;;;;;7.96;65.62;100960.00;5014639;28;20125;-54
2023/05/16 02:17:00;;;;;;;5.10;1.00;;;;;;;7.94;65.30;100961.66;5021564;28;20049;-55
2023/05/16 02:19:27;;;;;;;7.50;1.80;;;;;;;7.92;65.65;100968.50;5018129;28;20064;-55
2023/05/16 02:21:53;;;;;;;5.43;1.35;;;;;;;7.91;65.30;100960.72;5035922;28;20507;-55
2023/05/16 02:24:20;;;;;;;8.25;0.98;;;;;;;7.90;66.46;100965.00;5038198;28;20422;-56
2023/05/16 02:26:47;;;;;;;5.97;1.45;;;;;;;7.87;65.64;100959.75;5040807;28;20061;-56
2023/05/16 02:29:15;;;;;;;7.65;1.38;;;;;;;7.87;66.08;100959.75;5032309;28;20729;-57
2023/05/16 02:31:41;;;;;;;5.82;1.33;;;;;;;7.86;66.64;100962.34;5034751;28;20658;-57
2023/05/16 02:34:08;;;;;;;5.80;1.55;;;;;;;7.82;65.67;100962.25;5036047;28;20657;-57
2023/05/16 02:36:35;;;;;;;5.40;1.63;;;;;;;7.81;66.75;100964.78;5037164;28;20384;-56
2023/05/16 02:39:03;;;;;;;10.25;1.48;;;;;;;7.78;65.33;100962.13;5034037;28;20657;-54
2023/05/16 02:41:30;;;;;;;7.18;1.20;;;;;;;7.75;66.84;100967.22;5037686;28;20049;-55
2023/05/16 02:43:57;;;;;;;4.13;1.70;;;;;;;7.72;66.54;100961.16;5036195;28;20099;-56
2023/05/16 02:46:26;;;;;;;4.72;1.52;;;;;;;7.70;66.27;100957.66;5037643;28;20053;-54
2023/05/16 02:48:53;;;;;;;5.30;1.25;;;;;;;7.67;66.59;100957.59;5038003;28;20048;-56
2023/05/16 02:51:22;;;;;;;6.47;1.55;;;;;;;7.62;66.80;100964.34;5031024;28;20046;-57
2023/05/16 02:53:49;;;;;;;5.32;1.17;;;;;;;7.59;65.89;100967.72;5023934;28;20045;-53
2023/05/16 02:56:16;;;;;;;4.65;1.30;;;;;;;7.55;66.83;100960.75;5024962;28;20099;-57
2023/05/16 02:58:44;;;;;;;4.55;1.70;;;;;;;7.53;66.38;100958.97;5024872;28;20131;-55
2023/05/16 03:01:11;;;;;;;7.70;1.50;;;;;;;7.50;65.67;100964.06;5018976;28;20061;-56
2023/05/16 03:03:38;;;;;;;4.53;1.65;;;;;;;7.49;66.64;100957.16;5017170;28;20054;-55
2023/05/16 03:06:05;;;;;;;6.65;1.30;;;;;;;7.45;67.06;100951.94;5022747;28;20049;-56
2023/05/16 03:08:32;;;;;;;2.72;0.93;;;;;;;7.42;66.40;100951.84;5024788;28;20080;-57
2023/05/16 03:10:59;;;;;;;9.07;1.38;;;;;;;7.41;66.85;100956.97;5017573;28;20072;-54
2023/05/16 03:13:27;;;;;;;6.25;0.77;;;;;;;7.37;66.69;100953.44;5027090;28;20045;-58
2023/05/16 03:15:53;;;;;;;3.53;1.10;;;;;;;7.36;67.56;100954.25;5024055;28;20045;-57
2023/05/16 03:18:20;;;;;;;7.03;1.38;;;;;;;7.34;67.34;100955.94;5027788;28;20640;-56
2023/05/16 03:20:47;;;;;;;2.50;1.52;;;;;;;7.31;66.32;100955.84;5022435;28;20493;-57
2023/05/16 03:23:13;;;;;;;3.72;1.65;;;;;;;7.29;67.05;100960.09;5018764;28;20073;-56
2023/05/16 03:25:42;;;;;;;3.95;1.35;;;;;;;7.27;67.09;100959.19;5024306;28;20493;-56
2023/05/16 03:28:08;;;;;;;5.32;0.90;;;;;;;7.24;66.71;100960.00;5022304;28;20057;-56
2023/05/16 03:30:35;;;;;;;6.00;1.92;;;;;;;7.20;67.81;100947.88;5024120;28;20065;-57
2023/05/16 03:33:03;;;;;;;4.05;1.73;;;;;;;7.18;67.48;100950.41;5022158;28;20144;-56
2023/05/16 03:35:31;;;;;;;4.72;1.40;;;;;;;7.18;67.86;100949.50;5015312;28;20045;-57
2023/05/16 03:37:57;;;;;;;7.15;1.67;;;;;;;7.14;66.64;100946.00;5024290;28;20042;-55
2023/05/16 03:40:24;;;;;;;7.07;1.27;;;;;;;7.12;67.51;100947.66;5024002;28;20042;-55
2023/05/16 03:42:51;;;;;;;9.75;1.45;;;;;;;7.12;68.11;100951.94;5023597;28;20041;-54
2023/05/16 03:45:17;;;;;;;6.50;1.52;;;;;;;7.09;67.93;100949.28;5018418;28;20045;-56
2023/05/16 03:47:44;;;;;;;3.33;1.15;;;;;;;7.07;66.95;100951.81;5021556;28;20111;-54
2023/05/16 03:50:11;;;;;;;6.10;1.45;;;;;;;7.04;67.58;100946.59;5014371;28;20041;-55
2023/05/16 03:52:37;;;;;;;4.63;1.73;;;;;;;7.02;68.45;100951.69;5023751;28;20132;-54
2023/05/16 03:55:05;;;;;;;2.38;1.55;;;;;;;7.02;66.89;100950.81;5022849;28;20057;-57
2023/05/16 03:57:32;;;;;;;4.75;1.30;;;;;;;6.99;67.88;100945.59;5016771;28;20111;-57
2023/05/16 03:59:59;;;;;;;3.97;1.13;;;;;;;6.98;68.90;100951.56;5018597;28;20054;-55
2023/05/16 04:02:26;;;;;;;4.97;0.90;;;;;;;6.95;68.61;100949.78;5019819;28;20053;-56
2023/05/16 04:04:52;;;;;;;3.25;1.23;;;;;;;6.93;67.23;100947.16;5018897;28;20497;-56
2023/05/16 04:07:19;;;;;;;3.67;1.73;;;;;;;6.91;68.96;100948.84;5025209;28;20045;-55
2023/05/16 04:09:50;;;;;;;4.15;1.02;;;;;;;6.91;67.24;100956.56;5025482;28;20068;-56
2023/05/16 04:12:17;;;;;;;6.40;1.67;;;;;;;6.90;67.54;100959.09;5020637;28;20060;-55
2023/05/16 04:14:43;;;;;;;6.07;2.05;;;;;;;6.90;68.11;100962.56;5019185;28;20136;-57
2023/05/16 04:17:11;;;;;;;6.97;1.73;;;;;;;6.88;68.24;100964.19;5023960;28;20052;-57
2023/05/16 04:19:38;;;;;;;3.95;1.38;;;;;;;6.86;68.87;100965.84;5026279;28;20053;-56
2023/05/16 04:22:05;;;;;;;3.85;1.52;;;;;;;6.86;68.36;100973.56;5020738;28;20107;-56
2023/05/16 04:24:32;;;;;;;7.03;1.70;;;;;;;6.86;68.44;100970.16;5023006;28;20045;-52
2023/05/16 04:26:58;;;;;;;3.92;1.58;;;;;;;6.84;68.02;100967.53;5021736;28;20081;-57
2023/05/16 04:29:25;;;;;;;3.78;1.13;;;;;;;6.85;68.96;100970.97;5020341;28;20070;-57
2023/05/16 04:31:52;;;;;;;3.75;1.10;;;;;;;6.84;69.23;100966.63;5023420;28;20531;-55
2023/05/16 04:34:19;;;;;;;4.55;1.55;;;;;;;6.83;68.27;100965.78;5021423;28;20452;-56
2023/05/16 04:36:45;;;;;;;3.30;1.63;;;;;;;6.82;69.09;100969.16;5022968;28;20560;-55
2023/05/16 04:39:12;;;;;;;3.47;1.88;;;;;;;6.81;69.38;100973.47;5019877;28;20573;-56
2023/05/16 04:41:38;;;;;;;9.43;1.40;;;;;;;6.84;68.10;100969.22;5021528;28;20065;-57
2023/05/16 04:44:05;;;;;;;7.90;1.63;;;;;;;6.83;68.74;100970.94;5019639;28;20053;-56
2023/05/16 04:46:32;;;;;;;3.33;1.25;;;;;;;6.84;67.89;100977.81;5019605;28;20493;-52
2023/05/16 04:48:58;;;;;;;8.20;1.50;;;;;;;6.84;68.57;100975.25;5023536;28;20152;-55
2023/05/16 04:51:25;;;;;;;5.38;2.05;;;;;;;6.86;68.92;100976.16;5020933;28;20071;-56
2023/05/16 04:53:52;;;;;;;2.92;1.50;;;;;;;6.89;68.52;100986.53;5020535;28;20505;-54
2023/05/16 04:56:19;;;;;;;3.20;1.42;;;;;;;6.90;69.26;100975.44;5019051;28;20180;-54
2023/05/16 04:58:45;;;;;;;6.57;1.75;;;;;;;6.92;67.59;100978.91;5016531;28;20085;-55
2023/05/16 05:01:12;;;;;;;4.32;3.38;;;;;;;6.96;67.73;100981.56;5018008;28;20135;-55
2023/05/16 05:03:39;;;;;;;5.22;1.25;;;;;;;6.98;67.61;100980.78;5021560;28;20136;-57
2023/05/16 05:06:05;;;;;;;5.57;1.63;;;;;;;7.02;68.07;100984.28;5020156;28;20449;-54
2023/05/16 05:08:32;;;;;;;6.90;1.73;;;;;;;7.08;69.63;100987.03;5018548;28;20112;-56
2023/05/16 05:10:58;;;;;;;8.45;2.03;;;;;;;7.13;69.80;100980.31;5022726;28;20053;-57
2023/05/16 05:13:25;;;;;;;8.45;1.85;;;;;;;7.20;68.76;100991.66;5023673;28;20049;-54
2023/05/16 05:15:52;;;;;;;5.03;1.35;;;;;;;7.26;69.40;100986.66;5024519;28;20135;-55
2023/05/16 05:18:18;;;;;;;8.40;2.10;;;;;;;7.32;69.32;100993.66;5017519;28;20132;-54
2023/05/16 05:20:45;;;;;;;7.82;1.88;;;;;;;7.39;68.64;100987.84;5020921;28;20159;-53
2023/05/16 05:23:12;;;;;;;6.68;2.20;;;;;;;7.46;69.46;100989.75;5021681;28;20069;-55
2023/05/16 05:25:39;;;;;;;5.82;2.00;;;;;;;7.57;68.81;100991.75;5021408;28;20073;-54
2023/05/16 05:28:06;;;;;;;4.03;1.63;;;;;;;7.64;69.27;100988.47;5024672;28;20060;-55
2023/05/16 05:30:32;;;;;;;3.22;1.30;;;;;;;7.70;69.16;100991.19;5023485;28;20183;-54
2023/05/16 05:32:59;;;;;;;5.18;1.58;;;;;;;7.80;69.59;100994.00;5023461;28;20099;-53
2023/05/16 05:35:26;;;;;;;5.28;2.20;;;;;;;7.91;69.31;101002.84;5021666;28;20099;-53
2023/05/16 05:37:52;;;;;;;13.52;2.45;;;;;;;8.04;69.93;101003.16;5015129;28;20084;-56
2023/05/16 05:40:19;;;;;;;8.88;2.17;;;;;;;8.17;69.26;101018.06;5015665;28;20099;-56
2023/05/16 05:42:46;;;;;;;4.90;1.58;;;;;;;8.28;69.92;101007.13;5022152;28;20049;-55
2023/05/16 05:45:14;;;;;;;5.00;1.50;;;;;;;8.41;69.73;101010.84;5023578;28;20409;-54
2023/05/16 05:47:42;;;;;;;5.82;1.45;;;;;;;8.55;69.78;101016.34;5020273;28;20049;-52
2023/05/16 05:50:10;;;;;;;5.15;1.90;;;;;;;8.68;69.46;101017.47;5020267;28;20064;-56
2023/05/16 05:52:37;;;;;;;4.75;1.45;;;;;;;8.79;69.67;101025.44;5023468;28;20073;-55
2023/05/16 05:55:04;;;;;;;7.07;1.48;;;;;;;8.90;69.34;101029.09;5021119;28;20123;-54
2023/05/16 05:57:31;;;;;;;8.40;1.70;;;;;;;9.00;69.56;101023.28;5020851;28;20041;-54
2023/05/16 05:59:57;;;;;;;2.60;0.88;;;;;;;9.13;69.41;101031.28;5018733;28;20725;-54
2023/05/16 06:02:25;;;;;;;8.32;1.77;;;;;;;9.23;69.07;101028.00;5023483;28;20054;-55
2023/05/16 06:04:52;;;;;;;4.25;1.38;;;;;;;9.34;69.51;101025.63;5021823;28;20505;-55
2023/05/16 06:07:19;;;;;;;9.82;2.50;;;;;;;9.46;68.78;101029.28;5016742;28;20161;-50
2023/05/16 06:09:46;;;;;;;3.15;1.10;;;;;;;9.57;68.66;101032.03;5017087;28;20081;-53
2023/05/16 06:12:12;;;;;;;3.40;1.63;;;;;;;9.68;68.59;101030.50;5019728;28;20135;-56
2023/05/16 06:14:39;;;;;;;3.33;0.93;;;;;;;9.79;67.94;101027.25;5020286;28;20103;-53
2023/05/16 06:17:05;;;;;;;4.97;1.63;;;;;;;9.92;68.55;101029.16;5024175;28;20064;-55
2023/05/16 06:19:32;;;;;;;6.80;1.52;;;;;;;10.06;68.63;101036.28;5017809;28;20049;-54
2023/05/16 06:21:58;;;;;;;8.43;0.88;;;;;;;10.19;67.97;101038.19;5021045;28;20087;-52
2023/05/16 06:24:25;;;;;;;3.83;1.73;;;;;;;10.32;68.04;101038.38;5020627;28;20069;-55
2023/05/16 06:26:52;;;;;;;7.40;2.20;;;;;;;10.49;67.43;101042.13;5026075;28;20084;-54
2023/05/16 06:29:18;;;;;;;7.88;1.85;;;;;;;10.64;67.46;101038.00;5021894;28;20087;-54
2023/05/16 06:31:46;;;;;;;4.45;1.98;;;;;;;10.79;67.11;101033.00;5024419;28;20126;-56
2023/05/16 06:34:12;;;;;;;6.35;1.55;;;;;;;10.97;66.68;101041.84;5025900;28;20045;-55
2023/05/16 06:36:39;;;;;;;10.05;1.30;;;;;;;11.12;66.49;101048.06;5025604;28;20581;-55
2023/05/16 06:39:06;;;;;;;4.75;1.60;;;;;;;11.30;66.30;101048.25;5019685;28;20082;-54
2023/05/16 06:41:32;;;;;;;5.22;1.25;;;;;;;11.50;65.71;101049.31;5024190;28;20085;-55
2023/05/16 06:43:59;;;;;;;2.80;1.10;;;;;;;11.68;66.46;101048.59;5026337;28;20053;-55
2023/05/16 06:46:26;;;;;;;2.25;1.10;;;;;;;11.86;65.53;101049.63;5023203;28;20052;-54
2023/05/16 06:48:52;;;;;;;5.55;1.42;;;;;;;12.07;66.25;101047.22;5016225;28;20537;-55
2023/05/16 06:51:19;;;;;;;7.30;1.40;;;;;;;12.25;65.87;101044.72;5020952;28;20078;-49
2023/05/16 06:53:46;;;;;;;4.07;1.05;;;;;;;12.41;65.09;101045.69;5018373;28;20049;-54
2023/05/16 06:56:12;;;;;;;7.43;1.35;;;;;;;12.68;64.16;101046.69;5015879;28;20045;-55
2023/05/16 06:58:39;;;;;;;2.78;0.95;;;;;;;12.94;65.13;101051.13;5020442;28;20277;-54
2023/05/16 07:01:06;;;;;;;7.85;2.00;;;;;;;13.18;64.42;101046.88;5033500;28;20066;-52
2023/05/16 07:03:33;;;;;;;4.10;0.88;;;;;;;13.34;63.50;101048.63;5022884;28;20042;-54
2023/05/16 07:06:00;;;;;;;4.88;1.10;;;;;;;13.51;63.02;101054.78;5023320;28;20048;-55
2023/05/16 07:08:26;;;;;;;4.45;1.25;;;;;;;13.70;62.47;101047.84;5021915;28;20053;-54
2023/05/16 07:10:53;;;;;;;4.75;1.35;;;;;;;13.85;61.72;101060.84;5018393;28;20077;-54
2023/05/16 07:13:20;;;;;;;5.50;1.25;;;;;;;14.01;62.11;101055.63;5018257;28;20061;-52
2023/05/16 07:15:46;;;;;;;6.03;0.93;;;;;;;14.20;62.09;101050.41;5020165;28;20053;-55
2023/05/16 07:18:13;;;;;;;6.18;1.40;;;;;;;14.34;61.01;101051.25;5014407;28;20053;-53
2023/05/16 07:20:39;;;;;;;5.47;0.90;;;;;;;14.49;60.66;101044.28;5015636;28;20050;-56
2023/05/16 07:23:06;;;;;;;6.28;1.02;;;;;;;14.60;60.16;101052.94;5021589;28;20053;-55
2023/05/16 07:25:33;;;;;;;5.95;1.23;;;;;;;14.73;59.37;101058.09;5018444;28;20049;-52
2023/05/16 07:27:59;;;;;;;4.40;0.63;;;;;;;14.86;59.32;101062.41;5024714;28;20057;-52
2023/05/16 07:30:26;;;;;;;4.90;1.08;;;;;;;15.02;59.64;101065.81;5018659;28;20598;-55
2023/05/16 07:32:53;;;;;;;4.50;1.08;;;;;;;15.15;59.07;101055.31;5014968;28;20149;-52
2023/05/16 07:35:20;;;;;;;4.20;1.20;;;;;;;15.30;58.34;101059.56;5021141;28;20045;-55
2023/05/16 07:37:46;;;;;;;3.70;1.05;;;;;;;15.35;58.23;101063.03;5024369;28;20497;-57
2023/05/16 07:40:13;;;;;;;3.53;0.98;;;;;;;15.50;57.85;101067.28;5022245;28;20042;-54
2023/05/16 07:42:40;;;;;;;6.07;0.95;;;;;;;15.61;57.24;101063.72;5024931;28;20068;-55
2023/05/16 07:45:07;;;;;;;4.93;0.80;;;;;;;15.78;57.18;101061.00;5021394;28;20060;-53
2023/05/16 07:47:34;;;;;;;1.95;0.73;;;;;;;15.87;55.82;101073.97;5023169;28;20045;-52
2023/05/16 07:50:01;;;;;;;3.63;0.70;;;;;;;16.01;56.78;101067.78;5020794;28;20049;-54
2023/05/16 07:52:28;;;;;;;3.53;1.63;;;;;;;16.15;55.81;101068.50;5023326;28;20048;-57
2023/05/16 07:54:55;;;;;;;2.03;0.90;;;;;;;16.32;55.74;101067.50;5024753;28;20073;-54
2023/05/16 07:57:22;;;;;;;5.68;1.85;;;;;;;16.45;55.43;101069.09;5020696;28;20052;-56
2023/05/16 07:59:51;;;;;;;4.03;0.82;;;;;;;16.49;55.19;101074.28;5015794;28;20057;-54
2023/05/16 08:02:18;;;;;;;1.83;0.98;;;;;;;16.54;54.51;101069.84;5023027;28;20884;-57
2023/05/16 08:04:45;;;;;;;7.97;1.33;;;;;;;16.61;53.85;101068.06;5022182;28;20049;-56
2023/05/16 08:07:12;;;;;;;3.38;1.70;;;;;;;16.63;53.91;101063.66;5025847;28;20049;-56
2023/05/16 08:09:39;;;;;;;5.18;1.67;;;;;;;16.70;54.00;101074.06;5024619;28;20053;-55
2023/05/16 08:12:06;;;;;;;5.10;1.35;;;;;;;16.89;53.81;101078.19;5019095;28;20047;-55
2023/05/16 08:14:32;;;;;;;3.45;1.15;;;;;;;17.07;53.94;101077.09;5014714;28;20583;-54
2023/05/16 08:16:59;;;;;;;6.57;1.05;;;;;;;17.31;54.40;101075.03;5022778;28;20052;-58
2023/05/16 08:19:26;;;;;;;3.50;1.02;;;;;;;17.50;53.33;101074.75;5024475;28;20111;-53
2023/05/16 08:21:53;;;;;;;6.20;1.23;;;;;;;17.61;53.16;101075.47;5017424;28;20038;-55
2023/05/16 08:24:20;;;;;;;5.32;0.98;;;;;;;17.75;51.98;101075.25;5026416;28;20052;-56
2023/05/16 08:26:47;;;;;;;4.75;0.93;;;;;;;17.95;51.66;101090.63;5024143;28;20128;-56
2023/05/16 08:29:14;;;;;;;8.95;1.00;;;;;;;18.06;51.39;101076.47;5025395;28;20508;-56
2023/05/16 08:31:40;;;;;;;6.30;0.95;;;;;;;18.17;51.85;101077.16;5019733;28;20050;-54
2023/05/16 08:34:09;;;;;;;4.35;1.42;;;;;;;18.32;51.38;101077.78;5022871;28;20122;-53
2023/05/16 08:36:36;;;;;;;4.65;0.82;;;;;;;18.50;51.21;101074.81;5020523;28;20060;-56
2023/05/16 08:39:03;;;;;;;5.47;0.90;;;;;;;18.58;50.13;101071.19;5016158;28;20095;-55
2023/05/16 08:41:30;;;;;;;4.95;1.55;;;;;;;18.67;50.12;101070.13;5019309;28;20567;-56
2023/05/16 08:43:57;;;;;;;4.28;1.45;;;;;;;18.75;50.09;101069.06;5019250;28;20072;-54
2023/05/16 08:46:25;;;;;;;3.60;0.80;;;;;;;18.85;49.36;101068.88;5019501;28;20046;-56
2023/05/16 08:48:53;;;;;;;3.83;1.17;;;;;;;18.97;49.82;101057.25;5020686;28;20693;-54
2023/05/16 08:51:20;;;;;;;9.15;1.30;;;;;;;19.15;49.30;101058.63;5020125;28;20052;-53
2023/05/16 08:53:53;;;;;;;6.93;1.00;;;;;;;19.24;48.08;101055.81;5022535;28;20095;-53
2023/05/16 08:56:21;;;;;;;3.55;1.13;;;;;;;19.29;48.54;101062.72;5017344;28;20171;-53
2023/05/16 08:58:49;;;;;;;4.00;1.48;;;;;;;19.26;48.47;101061.03;5023311;28;20053;-55
2023/05/16 09:01:17;;;;;;;3.83;1.02;;;;;;;19.31;48.67;101060.91;5017560;28;20053;-55
2023/05/16 09:03:45;;;;;;;4.18;1.17;;;;;;;19.39;48.54;101066.88;5017973;28;20049;-54
2023/05/16 09:06:13;;;;;;;4.38;1.10;;;;;;;19.45;47.20;101058.81;5025019;28;20115;-55
2023/05/16 09:08:40;;;;;;;8.30;1.20;;;;;;;19.62;47.59;101057.56;5025616;28;20053;-53
2023/05/16 09:11:08;;;;;;;5.50;1.02;;;;;;;19.68;47.33;101062.66;5023149;28;20037;-56
2023/05/16 09:13:37;;;;;;;5.45;1.02;;;;;;;19.74;46.74;101056.38;5018933;28;20038;-56
2023/05/16 09:16:09;;;;;;;5.43;0.80;;;;;;;19.74;46.45;101062.53;5023523;28;20041;-54
2023/05/16 09:18:36;;;;;;;4.20;1.08;;;;;;;19.73;46.19;101058.13;5019819;28;20056;-54
2023/05/16 09:21:06;;;;;;;3.97;1.33;;;;;;;19.75;46.36;101060.72;5022889;28;20553;-57
2023/05/16 09:23:33;;;;;;;4.65;0.90;;;;;;;19.86;46.51;101057.84;5023416;28;20052;-52
2023/05/16 09:26:06;;;;;;;4.32;1.67;;;;;;;19.89;46.02;101063.00;5022259;28;20069;-54
2023/05/16 09:28:38;;;;;;;6.72;1.17;;;;;;;19.87;46.04;101062.19;5020643;28;20072;-58
2023/05/16 09:33:57;;;;;;;3.17;2.42;;;;;;;19.65;45.42;101060.97;5018608;27;20404;-56
2023/05/16 09:36:25;;;;;;;4.65;2.50;;;;;;;19.69;45.25;101060.91;5033087;28;20057;-55
2023/05/16 09:38:52;;;;;;;3.17;2.60;;;;;;;19.80;44.89;101052.75;5025788;28;20050;-54
2023/05/16 09:41:21;;;;;;;4.15;2.22;;;;;;;19.74;44.08;101054.63;5012746;28;20061;-54
2023/05/16 09:43:48;;;;;;;4.47;2.95;;;;;;;19.53;44.18;101056.03;5048367;28;20081;-54
2023/05/16 09:46:15;;;;;;;5.43;3.38;;;;;;;19.55;44.52;101056.00;5012374;28;20490;-54
2023/05/16 09:48:46;;;;;;;3.13;2.83;;;;;;;19.67;44.42;101053.06;5015637;28;20133;-62
2023/05/16 09:51:14;;;;;;;3.70;2.00;;;;;;;19.72;44.93;101051.16;5018140;28;20780;-59
2023/05/16 09:53:41;;;;;;;4.45;2.83;;;;;;;19.64;44.71;101050.50;5015763;28;20053;-55
2023/05/16 09:58:44;;;;;;;4.70;1.70;;;;;;;19.95;45.24;101052.34;5089831;27;20395;-58
2023/05/16 10:01:11;;;;;;;2.90;1.17;;;;;;;19.97;44.40;101045.28;5062886;28;20055;-60
2023/05/16 10:03:40;;;;;;;4.70;1.42;;;;;;;19.91;44.19;101053.34;5061131;28;20040;-58
2023/05/16 10:06:07;;;;;;;3.08;1.30;;;;;;;19.83;44.35;101047.41;5065392;28;20090;-60
2023/05/16 10:08:36;;;;;;;3.28;1.40;;;;;;;19.89;44.13;101049.88;5061785;28;20053;-60
2023/05/16 10:11:04;;;;;;;5.38;1.98;;;;;;;20.12;44.48;101054.56;5063168;28;20044;-61
2023/05/16 10:13:34;;;;;;;5.13;1.80;;;;;;;20.13;44.03;101045.75;5067947;28;20139;-61
2023/05/16 10:16:06;;;;;;;6.53;1.83;;;;;;;20.01;43.76;101046.09;5064986;28;20110;-61
2023/05/16 10:18:34;;;;;;;5.70;1.40;;;;;;;19.94;44.21;101049.75;5060352;28;20076;-56
2023/05/16 10:21:05;;;;;;;3.92;1.92;;;;;;;19.91;44.18;101048.06;5069873;28;20044;-57
2023/05/16 10:23:37;;;;;;;5.63;2.03;;;;;;;20.07;44.66;101050.34;5073182;28;20048;-56
2023/05/16 10:26:05;;;;;;;7.03;1.98;;;;;;;20.19;44.68;101047.38;5077192;28;20083;-58
2023/05/16 10:28:32;;;;;;;7.50;1.85;;;;;;;20.22;45.07;101055.19;5079957;28;20052;-54
2023/05/16 10:31:00;;;;;;;4.15;2.05;;;;;;;20.17;44.76;101049.19;5079867;28;20048;-58
2023/05/16 10:33:27;;;;;;;4.53;1.50;;;;;;;20.01;44.76;101046.97;5075980;28;20048;-58
2023/05/16 10:35:54;;;;;;;8.80;1.83;;;;;;;20.05;45.46;101053.00;5087609;27;20045;-56
2023/05/16 10:38:23;;;;;;;5.63;2.13;;;;;;;20.17;45.36;101041.31;5079849;28;20056;-57
2023/05/16 10:40:50;;;;;;;6.53;1.83;;;;;;;20.23;45.10;101041.13;5082289;28;20040;-60
2023/05/16 10:43:26;;;;;;;6.45;2.20;;;;;;;20.13;44.18;101045.75;5081348;28;20499;-59
2023/05/16 10:45:55;;;;;;;4.50;2.03;;;;;;;20.01;44.19;101046.97;5081014;28;20052;-62
2023/05/16 10:48:31;;;;;;;4.22;1.90;;;;;;;19.70;44.18;101058.25;5081946;28;20059;-61
2023/05/16 10:50:58;;;;;;;9.27;2.25;;;;;;;19.46;45.08;101055.31;5089927;28;20588;-61
2023/05/16 10:58:41;;;;;;;5.18;2.00;;;;;;;19.83;45.75;101057.94;5061656;27;20384;-57
2023/05/16 11:09:22;;;;;;;7.88;2.58;;;;;;;20.06;44.51;101049.47;5043430;27;20929;-58
2023/05/16 11:22:27;;;;;;;8.30;2.95;;;;;;;19.77;44.05;101057.19;5044016;27;20401;-54
2023/05/16 11:27:42;;;;;;;7.63;2.90;;;;;;;19.95;44.00;101047.09;5048339;27;20406;-58
2023/05/16 11:32:47;;;;;;;7.45;3.17;;;;;;;20.20;43.87;101043.84;5041796;27;20415;-57
2023/05/16 11:35:15;;;;;;;5.22;3.13;;;;;;;20.18;44.19;101045.66;4987927;28;20068;-57
2023/05/16 11:37:44;;;;;;;10.43;2.97;;;;;;;20.19;44.59;101044.72;4998951;28;20070;-58
2023/05/16 11:40:12;;;;;;;6.40;3.17;;;;;;;20.21;45.30;101048.19;5001386;28;20045;-58
2023/05/16 11:42:43;;;;;;;7.80;4.47;;;;;;;20.33;44.96;101049.63;4999459;28;20641;-59
2023/05/16 11:45:13;;;;;;;6.15;2.80;;;;;;;20.43;44.96;101042.31;5004684;28;20073;-59
2023/05/16 11:47:41;;;;;;;9.90;3.00;;;;;;;20.40;44.56;101050.34;4999588;28;20081;-59
2023/05/16 11:50:12;;;;;;;9.38;3.03;;;;;;;20.37;44.66;101053.03;5001804;28;20100;-58
2023/05/16 11:52:42;;;;;;;6.88;2.95;;;;;;;20.36;45.25;101048.69;4998689;28;20045;-58
2023/05/16 11:55:10;;;;;;;10.07;3.30;;;;;;;20.46;45.49;101047.50;4997640;28;20050;-57
2023/05/16 11:57:38;;;;;;;9.40;2.95;;;;;;;20.47;45.25;101051.84;4994984;28;20093;-58
2023/05/16 12:00:13;;;;;;;8.43;2.47;;;;;;;20.40;45.27;101055.59;5002696;28;20046;-57
2023/05/16 12:02:40;;;;;;;6.82;3.08;;;;;;;20.33;44.94;101059.28;4997318;28;20050;-57
2023/05/16 12:05:08;;;;;;;7.45;3.65;;;;;;;20.23;44.59;101056.06;5000276;28;20057;-58
2023/05/16 12:07:36;;;;;;;9.20;3.30;;;;;;;20.26;45.58;101046.28;5012734;28;20089;-55
2023/05/16 12:10:09;;;;;;;9.68;2.92;;;;;;;20.46;45.81;101044.88;4999797;28;20049;-57
2023/05/16 12:12:37;;;;;;;11.82;4.00;;;;;;;20.68;45.40;101046.91;4995835;28;20065;-62
2023/05/16 12:15:05;;;;;;;7.43;3.00;;;;;;;20.73;44.03;101039.72;4997383;28;20050;-59
2023/05/16 12:17:37;;;;;;;9.18;3.47;;;;;;;20.74;44.17;101046.69;5001512;28;20058;-58